Time;durP1;ratioP1;P1;durP2;ratioP2;P2;SDS_P1;SDS_P2;PMS_P1;PMS_P2;Temp;Humidity;BMP_temperature;BMP_pressure;BME280_temperature;BME280_humidity;BME280_pressure;Samples;Min_cycle;Max_cycle;Signal;HPM_P1;HPM_P2
2020/12/10 00:01:46;;;;;;;28.75;11.23;;;;;;;0.25;100.00;100744.50;4969026;28;20039;-69
2020/12/10 00:04:11;;;;;;;39.72;13.02;;;;;;;0.18;100.00;100739.72;4968353;28;20042;-69
2020/12/10 00:06:37;;;;;;;27.77;11.00;;;;;;;0.06;100.00;100741.41;4968512;28;20031;-69
2020/12/10 00:09:03;;;;;;;26.05;11.25;;;;;;;-0.02;100.00;100735.78;4968226;28;20519;-69
2020/12/10 00:11:28;;;;;;;30.38;11.55;;;;;;;-0.08;100.00;100739.66;4968566;28;20031;-69
2020/12/10 00:13:54;;;;;;;32.30;12.65;;;;;;;-0.11;100.00;100744.28;4968966;28;20081;-69
2020/12/10 00:16:19;;;;;;;37.55;13.38;;;;;;;-0.12;100.00;100742.59;4982964;28;20042;-69
2020/12/10 00:18:45;;;;;;;32.20;11.77;;;;;;;-0.11;100.00;100734.59;4968648;28;20045;-68
2020/12/10 00:21:10;;;;;;;26.98;10.77;;;;;;;-0.09;100.00;100731.88;4969287;28;20503;-69
2020/12/10 00:23:36;;;;;;;29.77;11.48;;;;;;;-0.02;100.00;100727.88;4967797;28;20042;-68
2020/12/10 00:26:02;;;;;;;30.08;11.25;;;;;;;0.07;100.00;100721.16;4968514;28;20031;-69
2020/12/10 00:28:28;;;;;;;30.38;11.63;;;;;;;0.12;100.00;100719.88;4967921;28;20031;-69
2020/12/10 00:30:53;;;;;;;27.27;11.27;;;;;;;0.09;100.00;100704.25;4969009;28;20404;-69
2020/12/10 00:33:19;;;;;;;32.25;12.32;;;;;;;0.07;100.00;100705.31;4968290;28;20066;-69
2020/12/10 00:35:45;;;;;;;30.35;11.63;;;;;;;0.04;100.00;100702.88;4968809;28;20117;-69
2020/12/10 00:38:10;;;;;;;27.40;12.13;;;;;;;-0.05;100.00;100707.84;4967135;28;20547;-68
2020/12/10 00:40:36;;;;;;;23.67;10.40;;;;;;;-0.11;100.00;100712.66;4968729;28;20035;-69
2020/12/10 00:43:01;;;;;;;38.63;11.95;;;;;;;-0.15;100.00;100697.97;4968616;28;20042;-69
2020/12/10 00:45:27;;;;;;;32.92;12.30;;;;;;;-0.16;100.00;100699.75;4972317;28;20031;-69
2020/12/10 00:47:53;;;;;;;34.10;12.30;;;;;;;-0.12;100.00;100701.25;4972097;28;20061;-69
2020/12/10 00:50:18;;;;;;;36.33;12.68;;;;;;;-0.06;100.00;100684.19;4972038;28;20027;-69
2020/12/10 00:52:44;;;;;;;37.63;12.88;;;;;;;0.02;100.00;100686.31;4971486;28;20499;-69
2020/12/10 00:55:09;;;;;;;38.30;14.10;;;;;;;0.02;100.00;100689.78;4971298;28;20030;-68
2020/12/10 00:57:36;;;;;;;36.70;12.90;;;;;;;0.04;100.00;100687.03;4971542;28;20114;-69
2020/12/10 01:00:05;;;;;;;41.03;12.68;;;;;;;0.08;100.00;100678.00;4972450;28;20027;-69
2020/12/10 01:02:31;;;;;;;39.42;13.23;;;;;;;0.12;100.00;100677.69;4971669;28;20035;-69
2020/12/10 01:04:56;;;;;;;35.78;12.23;;;;;;;0.17;100.00;100675.56;4971950;28;20057;-68
2020/12/10 01:07:21;;;;;;;34.95;13.57;;;;;;;0.23;100.00;100677.78;4970780;28;20039;-69
2020/12/10 01:09:47;;;;;;;33.85;12.52;;;;;;;0.27;100.00;100678.44;4972332;28;20042;-69
2020/12/10 01:12:13;;;;;;;38.63;13.88;;;;;;;0.30;100.00;100680.00;4971776;28;20093;-68
2020/12/10 01:14:38;;;;;;;34.20;13.68;;;;;;;0.38;100.00;100677.69;4973328;28;20089;-69
2020/12/10 01:17:04;;;;;;;32.75;11.50;;;;;;;0.48;100.00;100676.97;4986823;28;20027;-69
2020/12/10 01:19:29;;;;;;;32.83;13.18;;;;;;;0.56;100.00;100680.88;4972711;28;20050;-69
2020/12/10 01:21:55;;;;;;;35.65;12.60;;;;;;;0.67;100.00;100675.69;4971748;28;20039;-69
2020/12/10 01:24:20;;;;;;;36.45;13.48;;;;;;;0.74;100.00;100675.13;4972311;28;20039;-68
2020/12/10 01:26:46;;;;;;;34.63;12.73;;;;;;;0.84;100.00;100682.41;4971493;28;20351;-69
2020/12/10 01:29:11;;;;;;;28.00;11.02;;;;;;;0.89;100.00;100678.50;4972086;28;20027;-69
2020/12/10 01:31:37;;;;;;;31.98;10.82;;;;;;;0.95;100.00;100678.06;4971383;28;20054;-69
2020/12/10 01:34:02;;;;;;;24.90;10.68;;;;;;;1.01;100.00;100676.81;4972067;28;20039;-69
2020/12/10 01:36:30;;;;;;;29.17;10.60;;;;;;;1.05;100.00;100675.63;4985177;28;20038;-69
2020/12/10 01:38:56;;;;;;;26.52;10.52;;;;;;;1.13;100.00;100681.22;4972453;28;20467;-69
2020/12/10 01:41:28;;;;;;;25.38;10.27;;;;;;;1.17;100.00;100671.28;4986243;28;20067;-69
2020/12/10 01:44:06;;;;;;;28.13;10.40;;;;;;;1.21;100.00;100678.88;4971804;28;20042;-69
2020/12/10 01:46:32;;;;;;;25.20;10.93;;;;;;;1.28;100.00;100680.09;4957657;28;20035;-69
2020/12/10 01:48:58;;;;;;;24.73;9.80;;;;;;;1.29;100.00;100673.84;4971476;28;20041;-69
2020/12/10 01:51:24;;;;;;;27.08;9.48;;;;;;;1.31;100.00;100665.84;4971237;28;20030;-69
2020/12/10 01:53:49;;;;;;;23.90;9.77;;;;;;;1.35;100.00;100661.16;4971393;28;20046;-69
2020/12/10 01:56:16;;;;;;;25.77;9.15;;;;;;;1.38;100.00;100658.28;4970839;28;20039;-69
2020/12/10 01:58:42;;;;;;;22.40;8.60;;;;;;;1.41;100.00;100653.63;4971316;28;20031;-69
2020/12/10 02:01:08;;;;;;;24.25;9.32;;;;;;;1.41;100.00;100643.06;4971445;28;20111;-69
2020/12/10 02:03:34;;;;;;;18.85;8.52;;;;;;;1.43;100.00;100635.84;4971357;28;20041;-69
2020/12/10 02:06:00;;;;;;;24.23;9.30;;;;;;;1.46;100.00;100643.56;4971516;28;20035;-69
2020/12/10 02:08:25;;;;;;;22.80;8.88;;;;;;;1.44;100.00;100637.53;4971156;28;20054;-69
2020/12/10 02:10:51;;;;;;;18.30;7.88;;;;;;;1.41;100.00;100629.84;4971342;28;20073;-69
2020/12/10 02:13:16;;;;;;;22.63;7.75;;;;;;;1.37;100.00;100625.72;4971583;28;20407;-69
2020/12/10 02:15:49;;;;;;;16.13;7.07;;;;;;;1.33;100.00;100624.28;4971227;28;20496;-69
2020/12/10 02:18:16;;;;;;;18.13;8.35;;;;;;;1.30;100.00;100629.75;4970641;28;20431;-69
2020/12/10 02:20:44;;;;;;;20.23;7.45;;;;;;;1.24;100.00;100628.41;4971378;28;20093;-69
2020/12/10 02:23:11;;;;;;;18.45;7.43;;;;;;;1.21;100.00;100626.00;4971264;28;20030;-69
2020/12/10 02:25:37;;;;;;;27.08;8.48;;;;;;;1.15;100.00;100629.09;4971617;28;20097;-69
2020/12/10 02:28:10;;;;;;;19.10;7.82;;;;;;;1.09;100.00;100626.88;4970677;28;20026;-69
2020/12/10 02:30:38;;;;;;;20.55;7.63;;;;;;;1.08;100.00;100630.50;4971812;28;20181;-69
2020/12/10 02:33:06;;;;;;;18.58;7.32;;;;;;;1.06;100.00;100624.50;4970445;28;20033;-69
2020/12/10 02:35:35;;;;;;;21.35;7.90;;;;;;;1.07;100.00;100617.41;4971265;28;20031;-69
2020/12/10 02:38:04;;;;;;;19.33;8.05;;;;;;;1.06;100.00;100618.38;4969698;28;20023;-69
2020/12/10 02:40:44;;;;;;;16.80;6.75;;;;;;;1.06;100.00;100608.63;4971053;28;20054;-69
2020/12/10 02:43:12;;;;;;;21.15;7.80;;;;;;;1.03;100.00;100609.69;4969935;28;20034;-69
2020/12/10 02:45:39;;;;;;;18.30;7.45;;;;;;;1.05;100.00;100599.00;4960232;28;20054;-69
2020/12/10 02:48:05;;;;;;;16.65;7.63;;;;;;;1.04;100.00;100598.16;4968534;28;20380;-69
2020/12/10 02:50:31;;;;;;;18.88;7.35;;;;;;;1.06;100.00;100590.13;4970087;28;20037;-69
2020/12/10 02:52:57;;;;;;;15.85;6.40;;;;;;;1.06;100.00;100584.03;4969468;28;20035;-69
2020/12/10 02:55:23;;;;;;;15.35;6.35;;;;;;;1.03;100.00;100572.69;4970801;28;20031;-69
2020/12/10 02:57:52;;;;;;;19.00;6.65;;;;;;;1.02;100.00;100568.38;4969210;28;20046;-69
2020/12/10 03:00:18;;;;;;;20.85;7.32;;;;;;;1.01;100.00;100576.44;4970724;28;20125;-69
2020/12/10 03:02:45;;;;;;;16.80;6.93;;;;;;;0.99;100.00;100565.94;4970042;28;20484;-69
2020/12/10 03:05:10;;;;;;;18.50;7.03;;;;;;;0.97;100.00;100567.88;4970738;28;20034;-69
2020/12/10 03:07:39;;;;;;;17.02;7.07;;;;;;;0.97;100.00;100567.03;4969109;28;20035;-69
2020/12/10 03:10:09;;;;;;;20.05;6.82;;;;;;;0.96;100.00;100565.34;4970327;28;20034;-69
2020/12/10 03:12:36;;;;;;;17.85;6.30;;;;;;;0.94;100.00;100560.16;4984838;28;20038;-69
2020/12/10 03:15:02;;;;;;;18.30;7.13;;;;;;;0.92;100.00;100555.97;4969019;28;20074;-69
2020/12/10 03:17:28;;;;;;;14.55;6.60;;;;;;;0.91;100.00;100559.56;4969754;28;20045;-69
2020/12/10 03:19:55;;;;;;;16.20;6.25;;;;;;;0.89;100.00;100550.88;4970276;28;20038;-69
2020/12/10 03:22:21;;;;;;;19.98;7.57;;;;;;;0.90;100.00;100555.19;4957397;28;20054;-69
2020/12/10 03:24:47;;;;;;;14.10;5.80;;;;;;;0.86;100.00;100546.69;4969521;28;20093;-70
2020/12/10 03:27:13;;;;;;;19.70;7.00;;;;;;;0.89;100.00;100546.44;4969527;28;20035;-69
2020/12/10 03:29:39;;;;;;;18.67;6.63;;;;;;;0.90;100.00;100542.84;4970157;28;20376;-69
2020/12/10 03:32:06;;;;;;;16.17;6.63;;;;;;;0.89;100.00;100545.59;4969957;28;20069;-69
2020/12/10 03:34:32;;;;;;;14.40;6.10;;;;;;;0.86;100.00;100540.56;4969642;28;20045;-69
2020/12/10 03:36:59;;;;;;;18.85;7.20;;;;;;;0.81;100.00;100546.16;4968999;28;20483;-69
2020/12/10 03:39:26;;;;;;;18.73;7.07;;;;;;;0.77;100.00;100548.19;4969412;28;20031;-69
2020/12/10 03:41:53;;;;;;;17.23;7.40;;;;;;;0.74;100.00;100540.47;4969729;28;20392;-69
2020/12/10 03:44:19;;;;;;;17.90;6.82;;;;;;;0.70;100.00;100536.38;4969618;28;20026;-69
2020/12/10 03:46:45;;;;;;;17.00;6.30;;;;;;;0.72;100.00;100536.28;4968527;28;20037;-69
2020/12/10 03:49:12;;;;;;;17.83;6.78;;;;;;;0.73;100.00;100540.59;4969684;28;20038;-69
2020/12/10 03:51:37;;;;;;;17.88;6.85;;;;;;;0.70;100.00;100532.88;4969273;28;20515;-69
2020/12/10 03:54:03;;;;;;;15.77;6.68;;;;;;;0.67;100.00;100533.97;4969239;28;20053;-69
2020/12/10 03:56:31;;;;;;;17.92;6.85;;;;;;;0.63;100.00;100531.66;4969285;28;20033;-69
2020/12/10 03:58:57;;;;;;;20.10;6.88;;;;;;;0.57;100.00;100530.28;4968638;28;20440;-69
2020/12/10 04:01:23;;;;;;;18.80;6.70;;;;;;;0.53;100.00;100528.81;4966589;28;20428;-69
2020/12/10 04:03:49;;;;;;;19.90;6.45;;;;;;;0.48;100.00;100531.78;4968233;28;20085;-69
2020/12/10 04:06:14;;;;;;;17.38;8.00;;;;;;;0.42;100.00;100520.84;4968952;28;20053;-69
2020/12/10 04:08:40;;;;;;;16.02;7.40;;;;;;;0.32;100.00;100515.38;4969205;28;20031;-69
2020/12/10 04:11:05;;;;;;;18.67;7.38;;;;;;;0.29;100.00;100522.66;4969829;28;20027;-69
2020/12/10 04:13:31;;;;;;;16.95;7.00;;;;;;;0.25;100.00;100522.00;4969413;28;20050;-69
2020/12/10 04:16:00;;;;;;;16.42;6.38;;;;;;;0.23;100.00;100527.41;4969554;28;20105;-69
2020/12/10 04:18:25;;;;;;;22.00;7.15;;;;;;;0.22;100.00;100515.16;4969668;28;20163;-69
2020/12/10 04:20:51;;;;;;;17.27;6.45;;;;;;;0.20;100.00;100514.44;4973237;28;20399;-69
2020/12/10 04:23:17;;;;;;;18.27;7.18;;;;;;;0.19;100.00;100517.16;4973277;28;20093;-69
2020/12/10 04:25:42;;;;;;;17.80;6.78;;;;;;;0.17;100.00;100521.72;4973426;28;20464;-69
2020/12/10 04:28:08;;;;;;;16.75;7.03;;;;;;;0.15;100.00;100524.47;4972763;28;20077;-69
2020/12/10 04:30:34;;;;;;;17.77;6.60;;;;;;;0.14;100.00;100525.41;4973797;28;20443;-69
2020/12/10 04:33:00;;;;;;;17.73;7.18;;;;;;;0.15;100.00;100524.47;4972564;28;20023;-69
2020/12/10 04:35:26;;;;;;;20.67;8.40;;;;;;;0.16;100.00;100528.78;4973081;28;20110;-69
2020/12/10 04:37:51;;;;;;;19.10;7.57;;;;;;;0.23;100.00;100531.84;4972284;28;20027;-69
2020/12/10 04:40:17;;;;;;;22.90;7.65;;;;;;;0.30;100.00;100533.06;4973034;28;20100;-69
2020/12/10 04:42:44;;;;;;;19.48;7.97;;;;;;;0.38;100.00;100537.84;4973106;28;20557;-69
2020/12/10 04:45:09;;;;;;;17.25;7.07;;;;;;;0.53;100.00;100542.03;4973103;28;20025;-69
2020/12/10 04:47:36;;;;;;;18.65;7.20;;;;;;;0.65;100.00;100540.28;4972558;28;20035;-69
2020/12/10 04:50:04;;;;;;;16.67;6.95;;;;;;;0.63;100.00;100529.00;4973351;28;20030;-69
2020/12/10 04:52:32;;;;;;;16.95;6.65;;;;;;;0.57;100.00;100526.81;4973142;28;20027;-69
2020/12/10 04:54:58;;;;;;;15.10;5.65;;;;;;;0.51;100.00;100533.38;4972827;28;20030;-69
2020/12/10 04:57:28;;;;;;;17.33;6.25;;;;;;;0.45;100.00;100533.78;4972668;28;20121;-69
2020/12/10 04:59:54;;;;;;;15.93;6.80;;;;;;;0.46;100.00;100532.88;4973561;28;20039;-69
2020/12/10 05:02:19;;;;;;;16.13;6.30;;;;;;;0.48;100.00;100538.88;4972521;28;20097;-69
2020/12/10 05:04:45;;;;;;;20.83;7.32;;;;;;;0.51;100.00;100541.28;4971339;28;20097;-69
2020/12/10 05:07:11;;;;;;;18.23;7.80;;;;;;;0.58;100.00;100544.34;4972056;28;20030;-69
2020/12/10 05:09:36;;;;;;;22.08;7.75;;;;;;;0.63;100.00;100543.03;4987869;28;20038;-69
2020/12/10 05:12:02;;;;;;;17.23;6.70;;;;;;;0.66;100.00;100540.19;4972169;28;20062;-69
2020/12/10 05:14:45;;;;;;;18.08;7.15;;;;;;;0.70;100.00;100554.88;4972512;28;20085;-69
2020/12/10 05:17:14;;;;;;;18.55;7.50;;;;;;;0.72;100.00;100554.75;4971398;28;20031;-69
2020/12/10 05:19:43;;;;;;;20.90;6.68;;;;;;;0.74;100.00;100548.41;4972458;28;20038;-69
2020/12/10 05:22:09;;;;;;;17.48;6.47;;;;;;;0.80;100.00;100554.19;4972071;28;20099;-69
2020/12/10 05:24:36;;;;;;;20.20;6.88;;;;;;;0.86;100.00;100541.41;4987345;28;20487;-69
2020/12/10 05:27:23;;;;;;;18.02;7.68;;;;;;;0.89;100.00;100541.16;4971484;28;20034;-69
2020/12/10 05:29:51;;;;;;;16.50;6.28;;;;;;;0.93;100.00;100539.16;4971227;28;20066;-69
2020/12/10 05:32:40;;;;;;;17.00;7.28;;;;;;;0.96;100.00;100531.84;4971754;28;20506;-69
2020/12/10 05:35:13;;;;;;;17.77;7.00;;;;;;;0.98;100.00;100539.66;4971964;28;20031;-69
2020/12/10 05:37:38;;;;;;;20.10;7.82;;;;;;;0.94;100.00;100539.03;4971532;28;20037;-69
2020/12/10 05:40:04;;;;;;;20.15;7.40;;;;;;;0.96;100.00;100539.78;4971518;28;20034;-69
2020/12/10 05:42:38;;;;;;;21.98;7.03;;;;;;;0.98;100.00;100540.50;4972171;28;20033;-69
2020/12/10 05:45:16;;;;;;;18.58;7.50;;;;;;;1.02;100.00;100547.25;4971804;28;20093;-69
2020/12/10 05:47:52;;;;;;;20.83;8.13;;;;;;;1.07;100.00;100538.16;4970908;28;20396;-69
2020/12/10 05:50:24;;;;;;;20.25;7.93;;;;;;;1.04;100.00;100549.75;4971704;28;20275;-69
2020/12/10 05:53:07;;;;;;;17.40;6.93;;;;;;;1.07;100.00;100540.78;4971242;28;20061;-69
2020/12/10 05:55:34;;;;;;;19.20;7.35;;;;;;;1.09;100.00;100542.34;4986865;28;20031;-69
2020/12/10 05:58:01;;;;;;;24.30;8.05;;;;;;;1.06;100.00;100545.22;4970950;28;20027;-69
2020/12/10 06:00:27;;;;;;;22.58;8.20;;;;;;;1.02;100.00;100541.97;4971617;28;20035;-69
2020/12/10 06:02:56;;;;;;;21.38;9.02;;;;;;;1.10;100.00;100544.03;4971006;28;20034;-69
2020/12/10 06:05:24;;;;;;;20.88;8.05;;;;;;;1.08;100.00;100545.09;4986552;28;20031;-69
2020/12/10 06:08:06;;;;;;;21.45;9.05;;;;;;;1.07;100.00;100546.91;4971110;28;20381;-69
2020/12/10 06:10:37;;;;;;;20.95;8.32;;;;;;;1.07;100.00;100549.56;4971702;28;20037;-69
2020/12/10 06:13:04;;;;;;;20.35;7.88;;;;;;;1.13;100.00;100541.16;4971696;28;20062;-69
2020/12/10 06:15:32;;;;;;;19.52;7.90;;;;;;;1.16;100.00;100533.03;4970998;28;20443;-69
2020/12/10 06:18:10;;;;;;;21.00;8.10;;;;;;;1.17;100.00;100552.38;4970678;28;20033;-69
2020/12/10 06:20:45;;;;;;;19.92;7.72;;;;;;;1.19;100.00;100551.28;4971392;28;20086;-69
2020/12/10 06:23:23;;;;;;;20.85;8.57;;;;;;;1.22;100.00;100553.69;4971841;28;20031;-69
2020/12/10 06:25:50;;;;;;;18.83;7.47;;;;;;;1.26;100.00;100557.81;4959454;28;20047;-69
2020/12/10 06:28:17;;;;;;;21.65;8.15;;;;;;;1.27;100.00;100556.00;4970231;28;20080;-69
2020/12/10 06:31:02;;;;;;;18.80;8.10;;;;;;;1.26;100.00;100554.34;4971350;28;20476;-69
2020/12/10 06:33:39;;;;;;;20.02;7.43;;;;;;;1.28;100.00;100553.25;4970668;28;20043;-69
2020/12/10 06:36:26;;;;;;;17.40;8.07;;;;;;;1.32;100.00;100558.31;4986427;28;20085;-69
2020/12/10 06:38:54;;;;;;;18.35;8.75;;;;;;;1.32;100.00;100560.97;4971150;28;20041;-69
2020/12/10 06:41:20;;;;;;;17.33;8.00;;;;;;;1.31;100.00;100561.91;4970081;28;20089;-69
2020/12/10 06:43:46;;;;;;;15.57;7.45;;;;;;;1.33;100.00;100563.47;4985995;28;20511;-69
2020/12/10 06:46:11;;;;;;;18.63;7.55;;;;;;;1.29;100.00;100562.84;4957844;28;20043;-69
2020/12/10 06:48:40;;;;;;;19.73;7.78;;;;;;;1.24;100.00;100562.34;4970412;28;20027;-69
2020/12/10 06:51:16;;;;;;;21.33;8.63;;;;;;;1.22;100.00;100564.28;4969026;28;20077;-70
2020/12/10 06:54:07;;;;;;;22.08;7.40;;;;;;;1.17;100.00;100576.97;4970870;28;20038;-69
2020/12/10 06:57:05;;;;;;;21.00;7.65;;;;;;;1.13;100.00;100578.16;4970290;28;20045;-69
2020/12/10 06:59:40;;;;;;;17.17;7.88;;;;;;;1.12;100.00;100576.47;4970250;28;20042;-69
2020/12/10 07:02:14;;;;;;;19.63;8.68;;;;;;;1.11;100.00;100576.59;4969831;28;20031;-69
2020/12/10 07:04:50;;;;;;;21.15;8.20;;;;;;;1.08;100.00;100571.53;4970647;28;20069;-69
2020/12/10 07:07:19;;;;;;;26.10;9.20;;;;;;;1.10;100.00;100574.88;4969892;28;20035;-69
2020/12/10 07:09:48;;;;;;;21.35;8.32;;;;;;;1.08;100.00;100580.28;4968899;28;20039;-69
2020/12/10 07:12:22;;;;;;;17.23;7.97;;;;;;;1.05;100.00;100577.88;4970223;28;20047;-69
2020/12/10 07:14:48;;;;;;;23.90;9.48;;;;;;;1.05;100.00;100585.78;4970350;28;20042;-69
2020/12/10 07:17:13;;;;;;;19.77;8.77;;;;;;;1.14;100.00;100579.84;4969164;28;20037;-69
2020/12/10 07:19:39;;;;;;;18.67;9.50;;;;;;;1.15;100.00;100576.22;4970417;28;20037;-69
2020/12/10 07:22:06;;;;;;;22.55;9.48;;;;;;;1.18;100.00;100586.59;4969654;28;20030;-69
2020/12/10 07:24:31;;;;;;;23.52;8.68;;;;;;;1.26;100.00;100592.16;4970327;28;20637;-70
2020/12/10 07:26:57;;;;;;;20.60;9.25;;;;;;;1.33;100.00;100581.13;4984965;28;20200;-69
2020/12/10 07:29:23;;;;;;;21.25;9.32;;;;;;;1.37;100.00;100579.97;4970898;28;20030;-69
2020/12/10 07:31:49;;;;;;;18.77;8.38;;;;;;;1.40;100.00;100582.34;4968729;28;20049;-69
2020/12/10 07:34:15;;;;;;;17.63;8.30;;;;;;;1.41;100.00;100584.06;4970422;28;20030;-69
2020/12/10 07:36:50;;;;;;;18.60;8.02;;;;;;;1.43;100.00;100590.06;4969695;28;20050;-69
2020/12/10 07:39:32;;;;;;;20.92;9.43;;;;;;;1.40;100.00;100593.78;4970559;28;20512;-69
2020/12/10 07:41:58;;;;;;;20.33;9.00;;;;;;;1.34;100.00;100588.09;4959172;28;20556;-69
2020/12/10 07:44:28;;;;;;;21.17;8.63;;;;;;;1.30;100.00;100595.41;4983898;28;20043;-69
2020/12/10 07:46:54;;;;;;;20.00;8.63;;;;;;;1.27;100.00;100596.50;4958343;28;20058;-69
2020/12/10 07:49:25;;;;;;;22.95;9.00;;;;;;;1.25;100.00;100594.91;4969451;28;20077;-69
2020/12/10 07:52:06;;;;;;;23.35;9.88;;;;;;;1.24;100.00;100577.38;4969835;28;20423;-69
2020/12/10 07:54:43;;;;;;;25.98;11.07;;;;;;;1.19;100.00;100580.34;4969906;28;20034;-69
2020/12/10 07:57:22;;;;;;;24.92;9.80;;;;;;;1.16;100.00;100580.59;4969816;28;20447;-69
2020/12/10 07:59:57;;;;;;;22.50;9.95;;;;;;;1.13;100.00;100580.81;4968324;28;20031;-69
2020/12/10 08:02:41;;;;;;;30.80;13.13;;;;;;;1.11;100.00;100579.25;4969585;28;20384;-69
2020/12/10 08:05:15;;;;;;;33.50;14.35;;;;;;;1.09;100.00;100571.41;4970129;28;20302;-70
2020/12/10 08:07:48;;;;;;;27.13;11.93;;;;;;;1.11;100.00;100572.16;4970011;28;20022;-69
2020/12/10 08:10:24;;;;;;;30.23;12.52;;;;;;;1.15;100.00;100578.03;4969406;28;20038;-69
2020/12/10 08:13:09;;;;;;;30.80;11.20;;;;;;;1.24;100.00;100588.78;4970098;28;20046;-69
2020/12/10 08:15:38;;;;;;;26.05;10.10;;;;;;;1.28;100.00;100584.97;4969599;28;20058;-69
2020/12/10 08:18:05;;;;;;;25.42;10.05;;;;;;;1.29;100.00;100578.72;4969159;28;20023;-70
2020/12/10 08:20:45;;;;;;;26.13;10.52;;;;;;;1.32;100.00;100575.00;4968024;28;20045;-69
2020/12/10 08:23:12;;;;;;;25.35;10.13;;;;;;;1.34;100.00;100581.00;4969343;28;20039;-70
2020/12/10 08:25:39;;;;;;;27.00;10.88;;;;;;;1.35;100.00;100576.56;4969667;28;20121;-70
2020/12/10 08:28:06;;;;;;;28.88;11.35;;;;;;;1.36;100.00;100579.13;4968312;28;20030;-69
2020/12/10 08:30:35;;;;;;;31.60;11.95;;;;;;;1.39;100.00;100583.31;4970145;28;20057;-69
2020/12/10 08:33:02;;;;;;;28.88;11.40;;;;;;;1.43;100.00;100582.13;4983971;28;20046;-70
2020/12/10 08:35:28;;;;;;;20.30;10.00;;;;;;;1.48;100.00;100582.63;4952468;28;20065;-70
2020/12/10 08:37:54;;;;;;;23.58;10.00;;;;;;;1.54;100.00;100582.19;4961154;28;20038;-70
2020/12/10 08:40:41;;;;;;;28.30;9.80;;;;;;;1.54;100.00;100588.31;4967465;28;20039;-70
2020/12/10 08:43:17;;;;;;;28.98;10.73;;;;;;;1.57;100.00;100589.88;4966247;28;20034;-70
2020/12/10 08:45:44;;;;;;;25.85;10.30;;;;;;;1.61;100.00;100586.06;4955158;28;20042;-70
2020/12/10 08:48:27;;;;;;;25.75;10.55;;;;;;;1.64;100.00;100596.41;4965821;28;20435;-70
2020/12/10 08:50:55;;;;;;;28.83;10.10;;;;;;;1.66;100.00;100594.50;4966052;28;20038;-70
2020/12/10 08:53:21;;;;;;;24.17;9.65;;;;;;;1.74;100.00;100597.38;4954838;28;20521;-70
2020/12/10 08:55:51;;;;;;;23.63;10.30;;;;;;;1.76;100.00;100595.50;4967156;28;20037;-71
2020/12/10 08:58:20;;;;;;;22.65;9.55;;;;;;;1.79;100.00;100604.97;4966301;28;20122;-70
2020/12/10 09:00:48;;;;;;;24.58;10.63;;;;;;;1.83;100.00;100611.72;4967258;28;20117;-72
2020/12/10 09:03:14;;;;;;;31.15;10.18;;;;;;;1.92;100.00;100610.19;4967114;28;20030;-70
2020/12/10 09:05:40;;;;;;;24.95;10.20;;;;;;;1.98;100.00;100620.31;4970875;28;20066;-70
2020/12/10 09:08:06;;;;;;;24.75;9.52;;;;;;;2.01;100.00;100626.22;4970869;28;20406;-69
2020/12/10 09:10:35;;;;;;;22.75;9.85;;;;;;;2.03;100.00;100618.16;4971145;28;20034;-70
2020/12/10 09:13:02;;;;;;;21.60;8.85;;;;;;;2.12;100.00;100608.69;4970082;28;20125;-70
2020/12/10 09:15:29;;;;;;;23.58;9.45;;;;;;;2.16;100.00;100612.75;4970462;28;20027;-70
2020/12/10 09:18:03;;;;;;;25.17;10.15;;;;;;;2.20;100.00;100616.84;4970304;28;20479;-70
2020/12/10 09:20:28;;;;;;;27.40;9.55;;;;;;;2.23;100.00;100614.81;4971098;28;20031;-70
2020/12/10 09:22:54;;;;;;;27.05;9.77;;;;;;;2.26;100.00;100616.38;4969679;28;20118;-70
2020/12/10 09:25:19;;;;;;;22.10;9.70;;;;;;;2.34;100.00;100619.28;4970626;28;20492;-70
2020/12/10 09:27:45;;;;;;;25.75;9.68;;;;;;;2.34;100.00;100617.47;4969744;28;20469;-70
2020/12/10 09:30:12;;;;;;;22.65;9.27;;;;;;;2.41;100.00;100622.28;4970505;28;20045;-70
2020/12/10 09:32:40;;;;;;;26.30;9.85;;;;;;;2.38;100.00;100620.72;4969874;28;20126;-70
2020/12/10 09:35:08;;;;;;;21.65;9.68;;;;;;;2.41;100.00;100625.81;4970572;28;20558;-70
2020/12/10 09:37:34;;;;;;;26.05;10.15;;;;;;;2.44;100.00;100614.13;4969465;28;20474;-70
2020/12/10 09:40:00;;;;;;;21.48;9.77;;;;;;;2.44;100.00;100611.47;4970363;28;20034;-70
2020/12/10 09:42:27;;;;;;;30.20;12.63;;;;;;;2.52;100.00;100611.72;4969360;28;20039;-70
2020/12/10 09:44:54;;;;;;;24.48;9.68;;;;;;;2.53;100.00;100610.75;4969954;28;20027;-70
2020/12/10 09:47:19;;;;;;;24.77;10.05;;;;;;;2.54;100.00;100607.13;5000841;28;20023;-70
2020/12/10 09:49:45;;;;;;;24.23;10.57;;;;;;;2.55;100.00;100603.50;4970505;28;20046;-70
2020/12/10 09:52:12;;;;;;;24.60;9.50;;;;;;;2.55;100.00;100609.66;4969019;28;20027;-71
2020/12/10 09:54:53;;;;;;;23.02;10.23;;;;;;;2.58;100.00;100613.88;4970437;28;20058;-70
2020/12/10 09:57:30;;;;;;;22.35;10.02;;;;;;;2.60;100.00;100606.66;4969007;28;20109;-71
2020/12/10 09:59:58;;;;;;;20.75;9.40;;;;;;;2.60;100.00;100598.69;4970199;28;20093;-70
2020/12/10 10:02:24;;;;;;;27.27;9.30;;;;;;;2.68;100.00;100600.75;4984259;28;20042;-70
2020/12/10 10:04:50;;;;;;;22.55;9.20;;;;;;;2.66;100.00;100598.25;4985094;28;20073;-70
2020/12/10 10:07:16;;;;;;;22.02;8.40;;;;;;;2.67;100.00;100591.97;4970174;28;20031;-70
2020/12/10 10:09:42;;;;;;;26.23;10.13;;;;;;;2.64;100.00;100602.81;4985325;28;20038;-70
2020/12/10 10:12:09;;;;;;;24.77;9.18;;;;;;;2.65;100.00;100593.03;4969285;28;20035;-70
2020/12/10 10:14:36;;;;;;;21.20;10.05;;;;;;;2.67;100.00;100589.31;4969523;28;20085;-70
2020/12/10 10:17:12;;;;;;;25.58;9.70;;;;;;;2.68;100.00;100585.72;4968100;28;20031;-70
2020/12/10 10:19:38;;;;;;;24.38;9.65;;;;;;;2.72;100.00;100584.50;4984995;28;20038;-70
2020/12/10 10:22:04;;;;;;;21.80;10.30;;;;;;;2.75;100.00;100589.53;4968995;28;20399;-70
2020/12/10 10:24:31;;;;;;;23.13;8.95;;;;;;;2.78;100.00;100583.16;4969828;28;20423;-70
2020/12/10 10:26:58;;;;;;;22.42;10.55;;;;;;;2.83;100.00;100583.63;4969570;28;20444;-71
2020/12/10 10:29:23;;;;;;;25.63;10.23;;;;;;;2.85;100.00;100581.69;4984894;28;20039;-70
2020/12/10 10:31:50;;;;;;;27.88;10.52;;;;;;;2.84;100.00;100578.22;4969096;28;20035;-70
2020/12/10 10:34:16;;;;;;;25.92;10.70;;;;;;;2.85;100.00;100574.59;4968299;28;20051;-70
2020/12/10 10:36:43;;;;;;;30.70;12.27;;;;;;;2.80;100.00;100576.75;4968191;28;20134;-70
2020/12/10 10:39:10;;;;;;;25.83;12.23;;;;;;;2.82;100.00;100574.84;4969662;28;20041;-70
2020/12/10 10:41:43;;;;;;;29.48;12.23;;;;;;;2.85;100.00;100574.59;4968743;28;20031;-70
2020/12/10 10:44:08;;;;;;;30.48;11.02;;;;;;;2.92;100.00;100574.13;4969342;28;20034;-71
2020/12/10 10:46:34;;;;;;;23.70;10.45;;;;;;;2.93;100.00;100576.63;4971281;28;20042;-71
2020/12/10 10:49:18;;;;;;;28.55;10.32;;;;;;;3.02;100.00;100575.91;4969452;28;20380;-71
2020/12/10 10:51:48;;;;;;;26.67;10.90;;;;;;;3.12;100.00;100581.28;4957463;28;20060;-71
2020/12/10 10:54:15;;;;;;;27.10;10.52;;;;;;;3.17;100.00;100584.41;4968573;28;20027;-71
2020/12/10 10:56:58;;;;;;;26.40;10.15;;;;;;;3.25;100.00;100581.97;4968375;28;20030;-71
2020/12/10 10:59:23;;;;;;;28.85;11.80;;;;;;;3.23;100.00;100578.59;4968797;28;20039;-71
2020/12/10 11:01:49;;;;;;;25.73;11.07;;;;;;;3.22;100.00;100576.94;4967063;28;20137;-71
2020/12/10 11:04:14;;;;;;;25.30;10.40;;;;;;;3.23;99.86;100573.31;4968267;28;20038;-71
2020/12/10 11:06:40;;;;;;;31.58;11.82;;;;;;;3.30;100.00;100571.81;4968524;28;20090;-71
2020/12/10 11:09:06;;;;;;;29.15;10.95;;;;;;;3.35;98.97;100577.59;4968065;28;20570;-71
2020/12/10 11:11:31;;;;;;;26.65;10.30;;;;;;;3.42;98.92;100569.16;4967915;28;20042;-71
2020/12/10 11:13:58;;;;;;;25.65;11.55;;;;;;;3.39;97.16;100575.53;4967421;28;20042;-71
2020/12/10 11:16:23;;;;;;;26.55;11.50;;;;;;;3.51;98.25;100577.16;4967859;28;20042;-71
2020/12/10 11:18:49;;;;;;;31.85;12.23;;;;;;;3.61;97.74;100579.88;4967694;28;20026;-71
2020/12/10 11:21:15;;;;;;;29.13;11.05;;;;;;;3.64;97.43;100577.00;4968279;28;20042;-71